AGROMETEOROLOŠKI PORTAL

Vinorodna pokrajina

Temelj dobrega kmetovanja.

Pregled podatkov za lokacijo Trebnje DRSI, meteorološka postaja 18

Pregled senzorjev na lokaciji

ID Ime Zadnja
vrednost
Datum in čas
meritve
(lokalni čas)
Tip
senzorja
6170 Relativna zračna vlaga (2 m) (% RH) 58 % RH 29.5.2023 20:00 DRSI
6169 Temperatura (2 m) (°C) 22,5 °C 29.5.2023 20:00 DRSI
6172 Smer vetra (2 m) (°) 176 ° 29.5.2023 20:00 DRSI
6171 Hitrost vetra (2 m) (km/h) 2 km/h 29.5.2023 20:00 DRSI

Pregled podatkov zadnjih 24 ur

Zap.
št.
Datum in čas
(lokalni čas)
Trebnje DRSI
Relativna
zračna
vlaga
(2
m)
Temperatura
(2
m)
Smer
vetra
(2
m)
Hitrost
vetra
(2
m)
1 29.5.2023 20:00 58 22,5 176 1,6
2 29.5.2023 19:30 56 23,5 170,2 1,4
3 29.5.2023 19:00 54,7 23,6 152,2 3
4 29.5.2023 18:30 53,7 23,8 172,3 2,9
5 29.5.2023 18:00 51 24,3 203,6 2,4
6 29.5.2023 17:30 53,3 24,4 204,4 2,6
7 29.5.2023 17:00 52,3 24,9 208 2,5
8 29.5.2023 16:30 51,3 25 174,1 2,3
9 29.5.2023 16:00 51,3 25 186,7 2,3
10 29.5.2023 15:30 52 24,9 187,5 2,9
11 29.5.2023 15:00 49,7 25,4 171,1 2,9
12 29.5.2023 14:30 46 24,5 212,3 4,1
13 29.5.2023 14:00 52,3 23,5 186,2 3,7
14 29.5.2023 13:30 54,7 22,7 176,4 2,9
15 29.5.2023 13:00 54,3 22,5 238,9 7,4
16 29.5.2023 12:30 56,3 22,3 224,4 3,6
17 29.5.2023 12:00 57,7 21,9 212,1 2,9
18 29.5.2023 11:30 56,7 22,8 185,3 3,7
19 29.5.2023 11:00 59 22,6 186,3 2,3
20 29.5.2023 10:30 61 22 171,5 3,2
21 29.5.2023 10:00 63,7 20,7 207,8 3,7
22 29.5.2023 09:30 68,7 19,5 292,1 3,6
23 29.5.2023 09:00 74,7 18 331,6 2,6
24 29.5.2023 08:30 78 16,5 328 2
25 29.5.2023 08:00 81 14,9 327,3 1,6
26 29.5.2023 07:30 83,3 13,1 276,9 1,8
27 29.5.2023 07:00 86 11,5 10,4 1,8
28 29.5.2023 06:30 87 10,3 39,4 1,3
29 29.5.2023 06:00 87 10 12,7 1,9
30 29.5.2023 05:30 87 10,2 280 2
31 29.5.2023 05:00 87 10,1 200,8 1
32 29.5.2023 04:30 87 10,4 46,8 0,8
33 29.5.2023 04:00 86,3 10,8 270,7 1,7
34 29.5.2023 03:30 85,7 11 64,1 1,1
35 29.5.2023 03:00 86 11,4 143,5 0,8
36 29.5.2023 02:30 85,3 11,8 272,3 2,2
37 29.5.2023 02:00 84,3 11,8 51 1,1
38 29.5.2023 01:30 84 12,3 216 1,4
39 29.5.2023 01:00 82,3 12,6 237,4 1,1
40 29.5.2023 00:30 81,3 13,2 219,5 1,4
41 29.5.2023 00:00 81 13,4 188,8 0,7
42 28.5.2023 23:30 79,3 14 175,3 0,8
43 28.5.2023 23:00 78,3 14,6 232,5 0,8
44 28.5.2023 22:30 75,7 15,5 159,7 1,2
45 28.5.2023 22:00 71,7 16,3 254,2 1,4
46 28.5.2023 21:30 68,3 17,4 240,1 1